Time;durP1;ratioP1;P1;durP2;ratioP2;P2;SDS_P1;SDS_P2;PMS_P1;PMS_P2;Temp;Humidity;BMP_temperature;BMP_pressure;BME280_temperature;BME280_humidity;BME280_pressure;Samples;Min_cycle;Max_cycle;Signal;HPM_P1;HPM_P2
2024/01/31 00:00:28;;;;;;;32.92;13.65;;;;;;;-2.61;80.05;102145.34;5096998;28;20023;-77
2024/01/31 00:02:54;;;;;;;26.20;12.48;;;;;;;-2.53;79.53;102131.88;5078089;28;20052;-77
2024/01/31 00:05:19;;;;;;;32.20;13.38;;;;;;;-2.53;79.98;102124.88;5096760;28;20224;-77
2024/01/31 00:07:44;;;;;;;30.63;13.13;;;;;;;-2.56;79.30;102114.56;5096819;28;20067;-76
2024/01/31 00:10:10;;;;;;;28.70;13.68;;;;;;;-2.47;79.74;102116.69;5074375;28;20042;-78
2024/01/31 00:12:36;;;;;;;31.48;14.20;;;;;;;-2.32;78.62;102119.41;5092443;28;20031;-76
2024/01/31 00:15:01;;;;;;;25.25;12.60;;;;;;;-2.52;78.10;102089.13;5090583;28;20031;-76
2024/01/31 00:17:27;;;;;;;26.05;13.20;;;;;;;-2.40;79.24;102121.59;5069666;28;20500;-77
2024/01/31 00:19:52;;;;;;;30.13;12.98;;;;;;;-2.23;78.74;102132.81;5071724;28;20054;-77
2024/01/31 00:22:18;;;;;;;30.10;12.65;;;;;;;-2.14;78.30;102133.22;5069032;28;20107;-76
2024/01/31 00:24:43;;;;;;;27.67;13.02;;;;;;;-2.16;78.29;102115.00;5050814;28;20028;-77
2024/01/31 00:27:09;;;;;;;29.42;12.93;;;;;;;-2.06;77.45;102126.63;5068541;28;20029;-76
2024/01/31 00:29:35;;;;;;;27.48;13.07;;;;;;;-2.20;76.19;102129.19;5052986;28;20039;-77
2024/01/31 00:32:00;;;;;;;85.72;38.60;;;;;;;-2.15;76.64;102108.84;5068207;28;20024;-77
2024/01/31 00:34:26;;;;;;;182.85;92.22;;;;;;;-2.26;76.78;102126.91;5067749;28;20036;-77
2024/01/31 00:36:51;;;;;;;340.42;200.25;;;;;;;-2.59;78.73;102099.09;5063399;28;20036;-76
2024/01/31 00:39:20;;;;;;;129.77;89.47;;;;;;;-2.61;80.00;102136.66;5086263;28;20510;-76
2024/01/31 00:41:46;;;;;;;37.60;19.38;;;;;;;-2.68;80.09;102138.75;5087931;28;20032;-76
2024/01/31 00:44:12;;;;;;;37.30;19.38;;;;;;;-2.60;78.95;102141.78;5069673;28;20039;-77
2024/01/31 00:46:41;;;;;;;28.02;14.10;;;;;;;-2.84;80.63;102144.78;5077123;28;20040;-76
2024/01/31 00:49:08;;;;;;;33.05;15.32;;;;;;;-2.91;80.12;102117.31;5072523;28;20028;-76
2024/01/31 00:51:33;;;;;;;33.45;15.82;;;;;;;-2.59;79.28;102150.50;5087103;28;20032;-76
2024/01/31 00:54:00;;;;;;;38.75;15.10;;;;;;;-2.18;77.99;102143.00;5069539;28;20023;-77
2024/01/31 00:56:25;;;;;;;38.22;21.50;;;;;;;-2.07;77.19;102138.00;5079709;28;20079;-76
2024/01/31 00:58:51;;;;;;;34.22;15.88;;;;;;;-2.32;76.03;102122.84;5067913;28;20047;-76
2024/01/31 01:01:16;;;;;;;35.78;17.25;;;;;;;-2.27;75.77;102104.28;5069318;28;20067;-77
2024/01/31 01:03:41;;;;;;;37.88;16.77;;;;;;;-2.25;77.40;102136.41;5067218;28;20021;-77
2024/01/31 01:06:07;;;;;;;34.42;17.30;;;;;;;-2.34;78.25;102144.78;5053281;28;20118;-76
2024/01/31 01:08:32;;;;;;;33.25;16.27;;;;;;;-2.26;76.55;102116.44;5087176;28;20542;-76
2024/01/31 01:10:58;;;;;;;39.50;18.13;;;;;;;-2.55;77.58;102129.34;5083064;28;20110;-78
2024/01/31 01:13:23;;;;;;;39.60;18.33;;;;;;;-3.08;80.08;102131.25;5069190;28;20127;-77
2024/01/31 01:15:48;;;;;;;36.95;16.67;;;;;;;-3.54;81.65;102133.56;5086310;28;20463;-77
2024/01/31 01:18:14;;;;;;;28.90;14.88;;;;;;;-3.75;81.54;102125.06;5048721;28;20123;-77
2024/01/31 01:20:39;;;;;;;33.25;15.60;;;;;;;-3.59;81.17;102119.09;5061613;28;20047;-77
2024/01/31 01:23:06;;;;;;;48.10;21.08;;;;;;;-3.07;80.30;102132.09;5069074;28;20035;-76
2024/01/31 01:25:31;;;;;;;37.35;17.63;;;;;;;-2.99;80.14;102129.91;5087275;28;20523;-76
2024/01/31 01:27:57;;;;;;;43.05;18.70;;;;;;;-2.95;79.79;102114.94;5069640;28;20953;-76
2024/01/31 01:30:22;;;;;;;40.55;17.98;;;;;;;-2.90;79.21;102118.13;5076350;28;20569;-76
2024/01/31 01:32:48;;;;;;;39.22;17.77;;;;;;;-3.25;80.27;102079.94;5069162;28;20028;-76
2024/01/31 01:35:13;;;;;;;39.53;17.45;;;;;;;-3.03;80.37;102112.72;5086777;28;20028;-76
2024/01/31 01:37:40;;;;;;;32.00;15.02;;;;;;;-3.27;81.38;102094.81;5073279;28;20025;-77
2024/01/31 01:40:07;;;;;;;31.00;14.48;;;;;;;-3.31;83.34;102106.34;5073054;28;20024;-76
2024/01/31 01:42:37;;;;;;;33.80;15.02;;;;;;;-3.31;83.19;102114.16;5086833;28;20107;-77
2024/01/31 01:45:03;;;;;;;32.13;16.08;;;;;;;-3.24;81.86;102088.59;5087267;28;20039;-77
2024/01/31 01:47:29;;;;;;;32.63;15.27;;;;;;;-3.37;82.00;102074.47;5087007;28;20086;-76
2024/01/31 01:49:54;;;;;;;33.33;15.40;;;;;;;-3.28;81.99;102077.47;5085992;28;20066;-76
2024/01/31 01:52:20;;;;;;;33.90;15.10;;;;;;;-3.22;80.00;102107.63;5086741;28;20035;-77
2024/01/31 01:54:45;;;;;;;32.20;15.52;;;;;;;-3.15;79.90;102087.28;5068531;28;20028;-76
2024/01/31 01:57:11;;;;;;;33.72;15.60;;;;;;;-3.09;80.18;102102.59;5086096;28;20043;-76
2024/01/31 01:59:37;;;;;;;36.45;17.00;;;;;;;-2.94;78.89;102101.81;5086636;28;20035;-77
2024/01/31 02:02:03;;;;;;;38.78;17.10;;;;;;;-2.84;78.45;102102.16;5068486;28;20051;-76
2024/01/31 02:04:29;;;;;;;38.58;17.05;;;;;;;-2.89;77.71;102078.06;5086687;28;20035;-76
2024/01/31 02:06:55;;;;;;;45.90;20.25;;;;;;;-2.86;76.86;102091.81;5086434;28;20020;-76
2024/01/31 02:09:21;;;;;;;48.10;20.50;;;;;;;-2.87;78.14;102087.50;5086749;28;20493;-76
2024/01/31 02:11:46;;;;;;;49.33;22.65;;;;;;;-2.92;78.53;102071.25;5067027;28;20038;-77
2024/01/31 02:14:12;;;;;;;51.67;22.80;;;;;;;-2.88;78.84;102080.59;5086813;28;20040;-76
2024/01/31 02:16:37;;;;;;;42.95;20.38;;;;;;;-3.18;80.50;102085.66;5056331;28;20052;-76
2024/01/31 02:19:03;;;;;;;42.08;18.27;;;;;;;-3.79;83.12;102058.34;5046408;28;20039;-76
2024/01/31 02:21:30;;;;;;;41.05;19.23;;;;;;;-3.76;84.65;102079.06;5049059;28;20113;-76
2024/01/31 02:23:55;;;;;;;61.83;27.38;;;;;;;-3.62;83.47;102057.47;5028489;28;20029;-76
2024/01/31 02:26:21;;;;;;;45.78;22.65;;;;;;;-3.18;81.95;102075.22;5029701;28;20037;-77
2024/01/31 02:28:46;;;;;;;52.28;22.48;;;;;;;-3.11;80.81;102083.56;5050169;28;20029;-76
2024/01/31 02:31:12;;;;;;;47.10;21.60;;;;;;;-3.00;79.70;102078.66;5052428;28;20401;-76
2024/01/31 02:33:37;;;;;;;46.75;23.42;;;;;;;-2.89;79.38;102084.13;5049907;28;20025;-76
2024/01/31 02:36:03;;;;;;;46.42;22.30;;;;;;;-3.13;79.15;102072.38;5031505;28;20120;-78
2024/01/31 02:38:28;;;;;;;47.55;20.10;;;;;;;-3.08;79.58;102075.59;5031574;28;20108;-76
2024/01/31 02:40:53;;;;;;;51.92;21.10;;;;;;;-2.83;79.56;102090.78;5051981;28;20479;-76
2024/01/31 02:43:19;;;;;;;42.50;19.23;;;;;;;-3.01;78.14;102063.88;5031702;28;20104;-77
2024/01/31 02:45:44;;;;;;;40.80;20.83;;;;;;;-3.00;78.70;102068.22;5031891;28;20068;-77
2024/01/31 02:48:10;;;;;;;40.75;18.88;;;;;;;-2.93;78.40;102077.38;5049730;28;20038;-77
2024/01/31 02:50:35;;;;;;;40.97;18.23;;;;;;;-3.19;79.36;102062.25;5034320;28;20032;-76
2024/01/31 02:53:01;;;;;;;37.47;17.10;;;;;;;-3.07;78.55;102053.78;5049237;28;20474;-76
2024/01/31 02:55:26;;;;;;;36.83;17.70;;;;;;;-3.05;80.01;102085.88;5048960;28;20025;-76
2024/01/31 02:57:52;;;;;;;39.10;18.02;;;;;;;-2.99;78.78;102074.25;5049125;28;20027;-77
2024/01/31 03:00:17;;;;;;;37.97;17.30;;;;;;;-3.37;80.09;102048.41;5050561;28;20036;-76
2024/01/31 03:02:43;;;;;;;37.83;17.38;;;;;;;-3.56;82.39;102079.81;5052065;28;20486;-77
2024/01/31 03:05:12;;;;;;;41.65;19.48;;;;;;;-3.41;81.79;102081.66;5049298;28;20049;-76
2024/01/31 03:07:38;;;;;;;41.08;19.02;;;;;;;-3.19;80.66;102065.69;5048948;28;20033;-77
2024/01/31 03:10:04;;;;;;;142.57;70.30;;;;;;;-3.37;80.87;102067.53;5049513;28;20124;-77
2024/01/31 03:12:30;;;;;;;55.53;27.73;;;;;;;-3.06;79.63;102066.75;5033703;28;20066;-77
2024/01/31 03:14:56;;;;;;;55.65;23.85;;;;;;;-3.12;79.53;102066.25;5049126;28;20051;-76
2024/01/31 03:17:21;;;;;;;39.35;19.17;;;;;;;-3.41;82.14;102034.69;5066567;28;20055;-78
2024/01/31 03:19:47;;;;;;;38.35;17.05;;;;;;;-3.36;81.85;102044.88;5051001;28;20032;-77
2024/01/31 03:22:12;;;;;;;37.45;18.52;;;;;;;-3.27;82.27;102060.91;5063338;28;20032;-77
2024/01/31 03:24:38;;;;;;;36.08;18.42;;;;;;;-3.56;82.17;102032.88;5089081;28;20032;-77
2024/01/31 03:27:04;;;;;;;40.00;17.92;;;;;;;-3.54;83.05;102037.06;5088982;28;20088;-77
2024/01/31 03:29:29;;;;;;;35.15;17.10;;;;;;;-3.51;82.61;102036.09;5071373;28;20029;-76
2024/01/31 03:31:54;;;;;;;37.58;17.30;;;;;;;-3.45;84.12;102060.09;5071659;28;20470;-77
2024/01/31 03:34:20;;;;;;;36.67;17.75;;;;;;;-3.60;84.42;102058.25;5068460;28;20039;-78
2024/01/31 03:36:46;;;;;;;40.85;18.17;;;;;;;-3.58;84.54;102042.53;5068445;28;20099;-77
2024/01/31 03:39:12;;;;;;;38.60;18.67;;;;;;;-3.70;82.42;102034.44;5069004;28;20033;-76
2024/01/31 03:41:45;;;;;;;37.33;18.48;;;;;;;-3.76;82.93;102047.78;5072196;28;20467;-77
2024/01/31 03:44:13;;;;;;;38.30;19.27;;;;;;;-3.86;83.15;102049.16;5068889;28;20031;-77
2024/01/31 03:46:39;;;;;;;48.13;21.27;;;;;;;-3.99;85.05;102042.84;5059722;28;20397;-76
2024/01/31 03:49:04;;;;;;;48.33;20.88;;;;;;;-3.87;85.32;102042.25;5058017;28;20575;-77
2024/01/31 03:51:29;;;;;;;52.22;22.42;;;;;;;-3.78;85.17;102036.56;5077744;28;20042;-78
2024/01/31 03:53:55;;;;;;;50.17;21.48;;;;;;;-4.05;86.71;102030.97;5077593;28;20121;-77
2024/01/31 03:56:20;;;;;;;49.75;21.70;;;;;;;-3.98;87.37;102049.72;5056956;28;20537;-77
2024/01/31 03:58:46;;;;;;;47.22;20.77;;;;;;;-3.91;86.43;102040.72;5060177;28;20472;-77
2024/01/31 04:01:16;;;;;;;46.08;18.92;;;;;;;-4.00;86.48;102026.38;5076408;28;20083;-77
2024/01/31 04:03:43;;;;;;;46.85;18.75;;;;;;;-3.88;86.94;102051.00;5081454;28;20496;-76
2024/01/31 04:06:08;;;;;;;42.00;18.40;;;;;;;-3.75;86.61;102036.41;5060743;28;20036;-76
2024/01/31 04:08:34;;;;;;;43.42;19.05;;;;;;;-3.87;86.24;102052.66;5078696;28;20464;-77
2024/01/31 04:10:59;;;;;;;42.28;18.73;;;;;;;-3.87;86.41;102044.84;5061265;28;20060;-76
2024/01/31 04:13:25;;;;;;;37.65;17.13;;;;;;;-3.94;86.58;102046.91;5080278;28;20037;-78
2024/01/31 04:15:50;;;;;;;37.05;18.00;;;;;;;-4.04;86.10;102030.88;5078636;28;20101;-77
2024/01/31 04:18:15;;;;;;;38.17;18.95;;;;;;;-3.89;85.74;102054.50;5077700;28;20035;-77
2024/01/31 04:20:41;;;;;;;33.20;15.82;;;;;;;-3.95;86.74;102047.00;5071730;28;20107;-76
2024/01/31 04:23:07;;;;;;;34.33;16.42;;;;;;;-3.80;85.58;102063.63;5070378;28;20071;-76
2024/01/31 04:25:32;;;;;;;31.38;13.80;;;;;;;-4.05;86.23;102055.25;5049482;28;20413;-77
2024/01/31 04:27:58;;;;;;;31.13;14.93;;;;;;;-4.15;86.20;102043.59;5049784;28;20031;-78
2024/01/31 04:30:23;;;;;;;26.35;13.75;;;;;;;-4.15;86.04;102033.16;5067630;28;20037;-77
2024/01/31 04:32:49;;;;;;;26.60;12.95;;;;;;;-4.28;86.02;102032.09;5064714;28;20446;-76
2024/01/31 04:35:14;;;;;;;28.95;13.20;;;;;;;-4.28;84.71;102043.34;5076108;28;20028;-77
2024/01/31 04:37:39;;;;;;;27.25;12.85;;;;;;;-4.19;86.26;102052.47;5077257;28;20051;-77
2024/01/31 04:40:05;;;;;;;24.35;11.95;;;;;;;-4.12;85.73;102077.31;5058497;28;20075;-78
2024/01/31 04:42:31;;;;;;;28.20;12.73;;;;;;;-4.22;85.98;102049.19;5085815;28;20420;-77
2024/01/31 04:44:57;;;;;;;31.02;12.32;;;;;;;-4.39;86.57;102008.31;5080974;28;20028;-77
2024/01/31 04:47:25;;;;;;;25.75;13.32;;;;;;;-4.09;86.11;102063.28;5058823;28;20507;-77
2024/01/31 04:49:58;;;;;;;23.90;12.00;;;;;;;-4.18;85.28;102058.56;5077572;28;20068;-76
2024/01/31 04:52:24;;;;;;;23.95;11.48;;;;;;;-4.20;86.26;102060.38;5058509;28;20126;-76
2024/01/31 04:54:53;;;;;;;23.50;11.07;;;;;;;-4.17;85.52;102071.47;5077522;28;20059;-77
2024/01/31 04:57:18;;;;;;;;;;;;;;;-4.25;86.88;102076.22;5078435;28;20037;-76
2024/01/31 04:59:44;;;;;;;23.90;10.52;;;;;;;-4.45;85.82;102040.72;5078933;28;19989;-77
2024/01/31 05:02:09;;;;;;;19.98;10.75;;;;;;;-4.34;86.01;102069.69;5076096;28;20039;-77
2024/01/31 05:04:39;;;;;;;21.38;9.48;;;;;;;-4.72;86.12;102022.00;5075518;28;20024;-78
2024/01/31 05:07:05;;;;;;;18.65;9.90;;;;;;;-4.57;87.06;102062.97;5075575;28;20062;-77
2024/01/31 05:09:31;;;;;;;21.50;9.15;;;;;;;-4.52;87.12;102047.13;5059991;28;20051;-77
2024/01/31 05:11:56;;;;;;;17.35;8.55;;;;;;;-4.74;86.24;102065.50;5059472;28;20132;-76
2024/01/31 05:14:21;;;;;;;17.52;9.32;;;;;;;-4.47;85.35;102069.44;5059702;28;20459;-76
2024/01/31 05:16:48;;;;;;;16.75;8.98;;;;;;;-4.41;84.54;102072.66;5074140;28;20044;-76
2024/01/31 05:19:13;;;;;;;20.35;9.48;;;;;;;-4.39;85.37;102076.03;5066831;28;20054;-76
2024/01/31 05:21:48;;;;;;;21.77;9.20;;;;;;;-4.26;85.33;102082.34;5067343;28;20521;-76
2024/01/31 05:24:15;;;;;;;17.40;8.75;;;;;;;-4.40;84.97;102061.34;5084208;28;20078;-76
2024/01/31 05:26:42;;;;;;;18.13;7.63;;;;;;;-4.26;83.59;102061.50;5087168;28;20032;-76
2024/01/31 05:29:07;;;;;;;14.70;7.20;;;;;;;-4.30;82.91;102070.41;5085829;28;20028;-76
2024/01/31 05:31:33;;;;;;;15.80;7.60;;;;;;;-4.39;82.60;102047.38;5067313;28;20025;-77
2024/01/31 05:33:58;;;;;;;15.07;7.10;;;;;;;-4.60;82.49;102026.66;5080345;28;20030;-75
2024/01/31 05:36:24;;;;;;;15.60;7.70;;;;;;;-4.41;83.97;102063.09;5068646;28;20036;-77
2024/01/31 05:38:49;;;;;;;15.05;6.90;;;;;;;-4.33;82.57;102060.97;5087187;28;20596;-77
2024/01/31 05:41:15;;;;;;;15.63;7.88;;;;;;;-4.52;83.60;102047.97;5068330;28;20032;-76
2024/01/31 05:43:40;;;;;;;18.92;7.53;;;;;;;-4.32;83.65;102078.28;5079376;28;20055;-76
2024/01/31 05:46:06;;;;;;;17.27;7.95;;;;;;;-4.41;83.90;102059.63;5067362;28;20032;-76
2024/01/31 05:48:31;;;;;;;15.15;7.32;;;;;;;-4.40;84.17;102058.72;5048651;28;20029;-77
2024/01/31 05:50:56;;;;;;;17.83;7.80;;;;;;;-4.22;83.92;102083.91;5080818;28;20103;-76
2024/01/31 05:53:22;;;;;;;12.95;7.32;;;;;;;-4.29;84.68;102064.25;5067985;28;20028;-76
2024/01/31 05:55:47;;;;;;;13.82;6.72;;;;;;;-4.24;83.68;102064.88;5087073;28;20028;-77
2024/01/31 05:58:12;;;;;;;16.15;7.63;;;;;;;-4.10;83.88;102062.47;5087197;28;20024;-77
2024/01/31 06:00:38;;;;;;;17.67;8.23;;;;;;;-4.27;83.13;102033.75;5076833;28;20036;-76
2024/01/31 06:03:03;;;;;;;17.77;8.32;;;;;;;-3.83;82.23;102067.22;5073017;28;20032;-76
2024/01/31 06:05:29;;;;;;;22.35;10.15;;;;;;;-3.76;83.46;102093.84;5052958;28;20028;-76
2024/01/31 06:07:55;;;;;;;20.70;9.52;;;;;;;-3.71;83.29;102079.66;5070623;28;20104;-76
2024/01/31 06:10:20;;;;;;;19.40;9.20;;;;;;;-3.61;81.97;102081.81;5052581;28;20059;-76
2024/01/31 06:12:46;;;;;;;16.73;8.27;;;;;;;-3.70;82.67;102070.94;5070590;28;20493;-75
2024/01/31 06:15:11;;;;;;;17.58;9.45;;;;;;;-3.74;82.56;102058.97;5090173;28;20169;-76
2024/01/31 06:17:38;;;;;;;23.52;10.30;;;;;;;-3.69;83.43;102083.03;5076497;28;20044;-76
2024/01/31 06:20:04;;;;;;;19.55;10.13;;;;;;;-3.64;83.51;102085.41;5070788;28;20024;-76
2024/01/31 06:22:30;;;;;;;21.60;9.98;;;;;;;-3.48;82.24;102085.47;5070586;28;20055;-77
2024/01/31 06:24:56;;;;;;;21.10;9.95;;;;;;;-3.54;83.31;102064.94;5072722;28;20032;-77
2024/01/31 06:27:21;;;;;;;20.50;10.85;;;;;;;-3.58;85.08;102073.81;5069468;28;20040;-76
2024/01/31 06:29:47;;;;;;;28.42;14.88;;;;;;;-3.21;83.74;102087.59;5051706;28;20090;-77
2024/01/31 06:32:13;;;;;;;26.10;13.40;;;;;;;-2.94;84.03;102091.38;5070006;28;20020;-77
2024/01/31 06:34:38;;;;;;;27.55;15.18;;;;;;;-2.97;83.21;102083.69;5084031;28;20584;-77
2024/01/31 06:37:04;;;;;;;26.67;13.18;;;;;;;-3.09;82.89;102047.78;5090144;28;20398;-77
2024/01/31 06:39:29;;;;;;;23.63;11.93;;;;;;;-2.86;83.05;102085.72;5089649;28;20503;-78
2024/01/31 06:41:54;;;;;;;22.08;12.05;;;;;;;-2.72;82.76;102095.44;5055064;28;20037;-76
2024/01/31 06:44:20;;;;;;;21.95;11.50;;;;;;;-2.65;82.50;102070.69;5054006;28;20078;-77
2024/01/31 06:46:48;;;;;;;24.67;12.65;;;;;;;-2.31;81.33;102095.81;5051460;28;20482;-78
2024/01/31 06:49:14;;;;;;;23.83;11.40;;;;;;;-2.49;82.27;102095.03;5069458;28;20047;-75
2024/01/31 06:51:39;;;;;;;24.15;12.25;;;;;;;-2.48;82.81;102088.88;5051130;28;20489;-76
2024/01/31 06:54:06;;;;;;;26.20;12.50;;;;;;;-2.42;82.12;102074.63;5075754;28;20027;-76
2024/01/31 06:56:31;;;;;;;25.98;12.07;;;;;;;-2.46;82.02;102076.56;5089639;28;20055;-77
2024/01/31 06:58:57;;;;;;;24.40;11.57;;;;;;;-2.38;82.63;102096.22;5089522;28;20532;-79
2024/01/31 07:01:22;;;;;;;26.27;12.95;;;;;;;-2.25;82.17;102099.81;5079261;28;20107;-79
2024/01/31 07:03:48;;;;;;;27.27;13.23;;;;;;;-2.14;81.23;102086.19;5053134;28;20047;-78
2024/01/31 07:06:14;;;;;;;23.95;11.73;;;;;;;-2.14;81.37;102076.56;5069001;28;20029;-79
2024/01/31 07:08:40;;;;;;;22.60;12.05;;;;;;;-1.90;80.84;102078.69;5051314;28;20021;-79
2024/01/31 07:11:09;;;;;;;22.83;11.70;;;;;;;-1.66;79.16;102103.41;5069681;28;20029;-77
2024/01/31 07:13:39;;;;;;;29.70;13.73;;;;;;;-1.95;78.74;102065.03;5070423;28;20052;-77
2024/01/31 07:16:09;;;;;;;24.40;12.18;;;;;;;-1.56;78.06;102103.72;5087448;28;20101;-77
2024/01/31 07:18:43;;;;;;;21.73;12.18;;;;;;;-1.76;78.29;102076.09;5088960;28;20028;-77
2024/01/31 07:21:10;;;;;;;29.50;13.98;;;;;;;-2.15;79.42;102048.72;5088854;28;20428;-78
2024/01/31 07:23:36;;;;;;;29.63;13.98;;;;;;;-1.77;80.48;102090.13;5070466;28;20038;-78
2024/01/31 07:26:02;;;;;;;28.05;13.52;;;;;;;-1.60;80.78;102110.06;5088798;28;20036;-78
2024/01/31 07:28:27;;;;;;;25.77;13.00;;;;;;;-1.45;79.61;102090.00;5071147;28;20024;-78
2024/01/31 07:30:53;;;;;;;26.90;12.55;;;;;;;-1.28;78.83;102108.19;5088943;28;20059;-78
2024/01/31 07:33:21;;;;;;;22.05;11.88;;;;;;;-1.29;78.32;102085.56;5070981;28;20028;-77
2024/01/31 07:35:47;;;;;;;27.55;12.30;;;;;;;-1.22;79.63;102080.81;5087657;28;20038;-77
2024/01/31 07:38:12;;;;;;;24.98;12.27;;;;;;;-0.76;77.61;102071.88;5089117;28;20103;-79
2024/01/31 07:40:38;;;;;;;23.92;12.18;;;;;;;-0.57;76.29;102061.94;5088882;28;20024;-78
2024/01/31 07:43:04;;;;;;;23.40;11.48;;;;;;;-0.28;74.96;102064.50;5068716;28;20866;-78
2024/01/31 07:45:29;;;;;;;21.73;10.95;;;;;;;-0.14;74.54;102074.91;5080466;28;20111;-78
2024/01/31 07:47:56;;;;;;;20.65;11.25;;;;;;;0.10;74.41;102067.22;5070806;28;20024;-79
2024/01/31 07:50:22;;;;;;;22.08;10.15;;;;;;;0.12;73.80;102069.72;5070518;28;20507;-78
2024/01/31 07:52:47;;;;;;;21.73;10.52;;;;;;;0.15;72.97;102074.78;5088383;28;20032;-78
2024/01/31 07:55:13;;;;;;;18.92;9.05;;;;;;;0.45;72.12;102089.41;5069414;28;20101;-78
2024/01/31 07:57:39;;;;;;;16.33;8.88;;;;;;;0.38;71.33;102047.84;5088640;28;20556;-77
2024/01/31 08:00:06;;;;;;;15.68;8.13;;;;;;;0.26;70.28;102051.28;5088618;28;20059;-78
2024/01/31 08:02:32;;;;;;;15.32;7.43;;;;;;;0.66;68.01;102095.03;5074963;28;20721;-77
2024/01/31 08:04:58;;;;;;;16.95;9.25;;;;;;;0.35;70.03;102066.44;5070754;28;20020;-77
2024/01/31 08:07:24;;;;;;;15.25;8.10;;;;;;;0.57;69.10;102092.09;5067721;28;20026;-77
2024/01/31 08:09:49;;;;;;;17.90;7.55;;;;;;;0.28;69.04;102070.41;5049773;28;20082;-77
2024/01/31 08:12:15;;;;;;;11.80;6.63;;;;;;;0.66;69.02;102074.84;5067452;28;20032;-79
2024/01/31 08:14:41;;;;;;;11.30;6.30;;;;;;;0.86;65.77;102083.13;5052328;28;20032;-77
2024/01/31 08:17:07;;;;;;;14.40;6.90;;;;;;;0.86;65.68;102075.25;5067757;28;20135;-77
2024/01/31 08:19:33;;;;;;;13.07;6.78;;;;;;;1.10;65.64;102067.47;5068154;28;20118;-77
2024/01/31 08:21:59;;;;;;;12.38;6.22;;;;;;;1.02;63.76;102046.97;5067766;28;20474;-77
2024/01/31 08:24:24;;;;;;;14.00;7.22;;;;;;;1.30;64.16;102076.56;5049071;28;20107;-78
2024/01/31 08:26:50;;;;;;;15.15;8.02;;;;;;;1.56;65.02;102080.81;5069325;28;20585;-78
2024/01/31 08:29:16;;;;;;;13.23;8.02;;;;;;;1.65;64.64;102081.94;5088005;28;20412;-77
2024/01/31 08:31:41;;;;;;;15.73;7.97;;;;;;;1.89;63.25;102067.94;5069810;28;20035;-77
2024/01/31 08:34:07;;;;;;;21.23;10.27;;;;;;;2.09;64.05;102074.38;5087946;28;20029;-77
2024/01/31 08:36:32;;;;;;;41.20;15.27;;;;;;;2.44;62.73;102071.72;5068749;28;20029;-78
2024/01/31 08:38:58;;;;;;;28.80;12.00;;;;;;;2.20;61.34;102058.59;5088301;28;20067;-78
2024/01/31 08:41:23;;;;;;;35.92;15.95;;;;;;;2.24;63.09;102062.69;5088491;28;20028;-78
2024/01/31 08:43:49;;;;;;;15.68;8.45;;;;;;;2.37;61.39;102060.81;5068567;28;20034;-77
2024/01/31 08:46:14;;;;;;;15.95;9.25;;;;;;;2.42;61.82;102074.47;5080269;28;20035;-78
2024/01/31 08:48:40;;;;;;;14.77;7.60;;;;;;;2.67;61.24;102051.50;5070099;28;20024;-77
2024/01/31 08:51:08;;;;;;;21.02;11.77;;;;;;;2.81;61.44;102056.56;5070378;28;20680;-76
2024/01/31 08:53:33;;;;;;;;;;;;;;;2.98;60.47;102065.81;5053905;28;20028;-77
2024/01/31 08:55:59;;;;;;;14.40;8.07;;;;;;;2.66;61.43;102046.38;5057472;28;20374;-77
2024/01/31 08:58:24;;;;;;;14.45;8.65;;;;;;;3.03;60.37;102054.91;5088442;28;20585;-78
2024/01/31 09:00:49;;;;;;;14.90;8.40;;;;;;;2.98;59.84;102049.13;5088136;28;20385;-77
2024/01/31 09:03:15;;;;;;;13.95;8.48;;;;;;;3.07;59.94;102024.69;5089319;28;20107;-77
2024/01/31 09:05:40;;;;;;;16.48;7.57;;;;;;;3.00;61.45;102045.44;5088433;28;20028;-77
2024/01/31 09:08:06;;;;;;;13.32;6.93;;;;;;;3.29;59.62;102020.34;5089391;28;20492;-79
2024/01/31 09:10:31;;;;;;;13.75;7.38;;;;;;;3.72;59.25;102049.38;5079533;28;20049;-77
2024/01/31 09:12:57;;;;;;;13.15;7.25;;;;;;;3.47;58.95;102025.94;5089256;28;20028;-78
2024/01/31 09:15:22;;;;;;;13.75;7.82;;;;;;;3.52;58.66;102037.78;5080483;28;20056;-77
2024/01/31 09:17:47;;;;;;;16.02;8.07;;;;;;;3.72;57.69;102033.53;5079071;28;20040;-77
2024/01/31 09:20:13;;;;;;;13.10;7.05;;;;;;;3.73;56.76;102018.53;5060434;28;20031;-78
2024/01/31 09:22:40;;;;;;;13.10;7.50;;;;;;;3.95;56.12;102023.72;5077881;28;20024;-77
2024/01/31 09:25:06;;;;;;;12.30;6.88;;;;;;;4.11;55.61;102031.19;5078252;28;20074;-78
2024/01/31 09:27:31;;;;;;;17.25;8.50;;;;;;;4.37;56.18;102002.59;5077728;28;20040;-78
2024/01/31 09:29:57;;;;;;;15.52;8.07;;;;;;;4.54;54.94;102018.81;5075909;28;20105;-78
2024/01/31 09:32:22;;;;;;;13.43;7.63;;;;;;;4.55;53.26;102000.16;5076621;28;20024;-78
2024/01/31 09:34:47;;;;;;;14.30;8.23;;;;;;;5.08;52.12;102007.06;5075442;28;20096;-78
2024/01/31 09:37:13;;;;;;;15.05;7.55;;;;;;;5.01;52.35;101998.00;5081657;28;20342;-78
2024/01/31 09:39:38;;;;;;;11.70;7.07;;;;;;;5.00;52.19;101998.94;5060597;28;20020;-77
2024/01/31 09:42:04;;;;;;;14.88;8.15;;;;;;;5.09;51.80;101997.31;5077918;28;20032;-78
2024/01/31 09:44:30;;;;;;;15.10;8.13;;;;;;;5.06;51.59;101992.28;5075952;28;20103;-77
2024/01/31 09:46:57;;;;;;;11.90;7.30;;;;;;;5.05;52.76;101986.19;5085899;28;20027;-78
2024/01/31 09:49:22;;;;;;;14.75;7.57;;;;;;;5.33;51.28;101983.72;5095229;28;20028;-78
2024/01/31 09:51:48;;;;;;;15.27;7.40;;;;;;;5.58;50.31;101979.72;5076580;28;20042;-77
2024/01/31 09:54:14;;;;;;;12.35;7.22;;;;;;;5.73;47.16;101938.59;5091684;28;20519;-78
2024/01/31 09:56:40;;;;;;;12.60;6.75;;;;;;;6.01;47.67;101934.25;5084140;28;20597;-77
2024/01/31 09:59:05;;;;;;;17.40;8.73;;;;;;;6.08;48.10;101946.94;5072145;28;20554;-78
2024/01/31 10:01:31;;;;;;;17.08;10.50;;;;;;;6.20;48.41;101951.91;5071422;28;20031;-77
2024/01/31 10:03:57;;;;;;;10.90;7.60;;;;;;;6.46;47.08;101950.44;5071620;28;20037;-78
2024/01/31 10:06:27;;;;;;;12.07;7.20;;;;;;;6.31;47.50;101953.56;5075185;28;20046;-77
2024/01/31 10:08:52;;;;;;;12.25;6.75;;;;;;;6.40;46.83;101957.16;5072715;28;20051;-76
2024/01/31 10:11:18;;;;;;;14.18;7.82;;;;;;;7.00;45.81;101948.78;5090854;28;20058;-78
2024/01/31 10:13:43;;;;;;;13.82;6.78;;;;;;;7.11;44.68;101930.00;5063689;28;20060;-77
2024/01/31 10:16:09;;;;;;;10.70;6.28;;;;;;;7.12;45.09;101936.97;5055035;28;20506;-77
2024/01/31 10:18:34;;;;;;;11.30;6.25;;;;;;;6.92;43.18;101949.50;5070673;28;20025;-77
2024/01/31 10:21:01;;;;;;;12.13;6.45;;;;;;;7.22;43.96;101937.72;5052382;28;20377;-78
2024/01/31 10:23:26;;;;;;;11.13;6.97;;;;;;;7.23;42.27;101918.19;5070185;28;20523;-76
2024/01/31 10:25:52;;;;;;;14.70;7.47;;;;;;;7.42;41.61;101927.81;5070490;28;20033;-77
2024/01/31 10:28:21;;;;;;;10.85;5.97;;;;;;;7.39;40.99;101906.03;5073172;28;20036;-77
2024/01/31 10:30:47;;;;;;;8.85;5.03;;;;;;;7.38;40.05;101928.28;5070208;28;20111;-78
2024/01/31 10:33:14;;;;;;;10.25;5.43;;;;;;;7.44;40.62;101925.00;5070491;28;20039;-78
2024/01/31 10:35:42;;;;;;;11.15;5.80;;;;;;;7.59;39.62;101918.16;5070155;28;20042;-77
2024/01/31 10:38:08;;;;;;;;;;;;;;;8.09;40.70;101915.84;5086732;28;20043;-77
2024/01/31 10:40:35;;;;;;;12.68;7.95;;;;;;;8.38;38.86;101919.00;5071999;28;19912;-78
2024/01/31 10:43:02;;;;;;;12.65;7.05;;;;;;;8.81;37.05;101911.88;5090144;28;20066;-78
2024/01/31 10:45:30;;;;;;;11.70;6.45;;;;;;;8.87;37.77;101912.22;5070342;28;20036;-77
2024/01/31 10:47:56;;;;;;;13.05;7.55;;;;;;;9.03;36.91;101904.28;5071869;28;20299;-77
2024/01/31 10:50:21;;;;;;;14.82;7.53;;;;;;;8.80;37.91;101898.75;5069621;28;20607;-77
2024/01/31 10:52:48;;;;;;;9.48;5.65;;;;;;;9.20;36.69;101910.47;5070194;28;20107;-77
2024/01/31 10:55:14;;;;;;;8.35;4.75;;;;;;;8.53;36.43;101891.84;5087846;28;20028;-78
2024/01/31 10:57:42;;;;;;;9.98;5.30;;;;;;;9.15;37.38;101897.63;5069622;28;20035;-78
2024/01/31 11:00:22;;;;;;;9.63;5.47;;;;;;;9.00;36.87;101897.47;5071519;28;20039;-77
2024/01/31 11:02:48;;;;;;;8.55;4.90;;;;;;;9.40;35.88;101887.84;5089873;28;20642;-77
2024/01/31 11:05:14;;;;;;;8.32;4.88;;;;;;;9.97;34.21;101889.63;5090087;28;20114;-76
2024/01/31 11:07:46;;;;;;;8.60;5.22;;;;;;;9.29;35.31;101880.19;5081814;28;20028;-76